Flight Track Log - Related Links

Times and Time Zones

All times are in EDT time to prevent confusion due to time zone crossing. See the N53NW flight status page for this flight to view local times or setup timezone preferences in your user account.

Time Position Orientation Groundspeed Altitude Reporting Facility
EDT Latitude Longitude Course Direction KTS MPH feet Rate Location/Type
Tue 04:24:18 PM 37.7586 -97.2189 72° East 162 186 2,100  Level Kansas City Center
Tue 04:25:31 PM 37.7783 -97.1417 72° East 254 292 3,500 1,684 Climbing Kansas City Center
Tue 04:26:12 PM 37.7558 -97.0953 122° Southeast 249 287 5,300 2,889 Climbing Kansas City Center
Tue 04:26:25 PM 37.7356 -97.0928 174° South 264 304 6,100 3,387 Climbing Kansas City Center
Tue 04:27:14 PM 37.6894 -97.1231 207° Southwest 263 303 8,800 3,375 Climbing Kansas City Center
Tue 04:28:17 PM 37.6175 -97.1708 208° Southwest 289 333 12,400 3,456 Climbing Kansas City Center
Tue 04:29:19 PM 37.5261 -97.1783 184° South 330 380 16,000 3,290 Climbing Kansas City Center
Tue 04:30:21 PM 37.4319 -97.1761 179° South 336 387 19,200 3,048 Climbing Kansas City Center
Tue 04:31:23 PM 37.3128 -97.1728 179° South 349 402 22,300 2,371 Climbing Kansas City Center
Tue 04:32:25 PM 37.2031 -97.1711 179° South 378 435 24,100 1,839 Climbing Kansas City Center
Tue 04:33:27 PM 37.0883 -97.1667 178° South 403 464 26,100 1,887 Climbing Kansas City Center
Tue 04:34:29 PM 36.9697 -97.1594 177° South 421 484 28,000 919 Climbing Kansas City Center
Tue 04:35:31 PM 36.8464 -97.1572 179° South 436 502 28,000  Level Kansas City Center
Tue 04:36:33 PM 36.7214 -97.1608 181° South 440 506 28,000  Level Kansas City Center
Tue 04:37:35 PM 36.6086 -97.2044 197° South 441 507 28,000  Level Kansas City Center
Tue 04:38:37 PM 36.4714 -97.2508 195° South 427 491 28,000  Level Kansas City Center
Tue 04:39:39 PM 36.3583 -97.2883 195° South 422 486 28,000  Level Kansas City Center
Tue 04:40:41 PM 36.2450 -97.3253 195° South 422 486 28,000  Level Kansas City Center
Tue 04:41:43 PM 36.1311 -97.3619 195° South 423 487 28,000  Level Kansas City Center
Tue 04:42:45 PM 36.0186 -97.3981 195° South 420 483 28,000  Level Kansas City Center
Tue 04:43:47 PM 35.8836 -97.4408 194° South 419 482 28,000  Level Kansas City Center
Tue 04:44:49 PM 35.7711 -97.4769 195° South 419 482 28,000  Level Kansas City Center
Tue 04:45:51 PM 35.6589 -97.5142 195° South 420 483 28,000  Level Kansas City Center
Tue 04:46:24 PM 35.5897 -97.5411 198° South 417 480 28,000  Level Fort Worth Center
Tue 04:47:24 PM 35.4769 -97.5767 194° South 417 480 28,000  Level Fort Worth Center
Tue 04:48:24 PM 35.3622 -97.6122 194° South 417 480 28,000  Level Fort Worth Center
Tue 04:49:24 PM 35.2517 -97.5992 174° South 422 486 28,000  Level Fort Worth Center
Tue 04:50:24 PM 35.1350 -97.5811 173° South 422 486 28,000  Level Fort Worth Center
Tue 04:51:24 PM 35.0181 -97.5631 173° South 427 491 28,000  Level Fort Worth Center
Tue 04:52:24 PM 34.8972 -97.5478 174° South 427 491 28,000  Level Fort Worth Center
Tue 04:53:24 PM 34.7806 -97.5297 173° South 427 491 28,000  Level Fort Worth Center
Tue 04:54:24 PM 34.6617 -97.5119 173° South 427 491 28,000 -150 Level Fort Worth Center
Tue 04:55:24 PM 34.5425 -97.4967 174° South 427 491 27,700 -750 Descending Fort Worth Center
Tue 04:56:24 PM 34.4258 -97.4789 173° South 427 491 26,500 -1,200 Descending Fort Worth Center
Tue 04:57:24 PM 34.3089 -97.4714 177° South 427 491 25,300 -1,200 Descending Fort Worth Center
Tue 04:58:24 PM 34.2047 -97.5139 199° South 411 473 24,100 -850 Descending Fort Worth Center
Tue 04:59:24 PM 34.1003 -97.5514 197° South 399 459 23,600 -1,100 Descending Fort Worth Center
Tue 05:00:24 PM 33.9958 -97.5639 186° South 386 444 21,900 -1,800 Descending Fort Worth Center
Tue 05:01:24 PM 33.8811 -97.5836 188° South 385 443 20,000 -1,800 Descending Fort Worth Center
Tue 05:02:24 PM 33.8203 -97.6658 228° Southwest 329 379 18,300 -1,550 Descending Fort Worth Center
Tue 05:03:24 PM 33.7325 -97.7083 202° Southwest 334 384 16,900 -1,500 Descending Fort Worth Center
Tue 05:04:24 PM 33.6469 -97.7178 185° South 341 392 15,300 -1,650 Descending Fort Worth Center
Tue 05:05:24 PM 33.5406 -97.7200 181° South 341 392 13,600 -1,550 Descending Fort Worth Center
Tue 05:06:24 PM 33.4633 -97.6800 157° South 341 392 12,200 -1,300 Descending Fort Worth Center
Tue 05:07:24 PM 33.3697 -97.6250 154° Southeast 343 395 11,000 -766 Descending Fort Worth Center
Tue 05:07:58 PM 33.3333 -97.5833 136° Southeast 322 371 11,000  Level Dallas / Fort Worth TRACON
Tue 05:09:03 PM 33.2667 -97.5000 134° Southeast 321 369 11,000  Level Dallas / Fort Worth TRACON
Tue 05:09:58 PM 33.2000 -97.4333 140° Southeast 322 371 11,000  Level Dallas / Fort Worth TRACON
Tue 05:11:04 PM 33.1333 -97.3500 134° Southeast 322 371 11,000  Level Dallas / Fort Worth TRACON
Tue 05:12:09 PM 33.0667 -97.2667 134° Southeast 324 373 11,000  Level Dallas / Fort Worth TRACON
Tue 05:13:03 PM 33.0167 -97.2000 132° Southeast 283 326 11,000 -104 Level Dallas / Fort Worth TRACON
Tue 05:14:04 PM 32.9500 -97.1667 157° South 287 330 10,800 -1,087 Descending Dallas / Fort Worth TRACON
Tue 05:15:10 PM 32.8500 -97.1667 180° South 276 318 8,700 -1,824 Descending Dallas / Fort Worth TRACON
Tue 05:16:09 PM 32.7833 -97.1667 180° South 251 289 7,000 -1,350 Descending Dallas / Fort Worth TRACON
Tue 05:17:10 PM 32.7167 -97.1667 180° South 241 277 6,000 -992 Descending Dallas / Fort Worth TRACON
Tue 05:18:10 PM 32.6500 -97.1667 180° South 232 267 5,000 -1,350 Descending Dallas / Fort Worth TRACON
Tue 05:19:10 PM 32.6667 -97.1000 73° East 190 219 3,300 -960 Descending Dallas / Fort Worth TRACON
Tue 05:20:15 PM 32.7167 -97.0667 29° Northeast 200 230 3,000 -200 Descending Dallas / Fort Worth TRACON
Tue 05:21:10 PM 32.7500 -97.0500 23° Northeast 179 206 2,900 -470 Descending Dallas / Fort Worth TRACON
Tue 05:22:10 PM 32.8000 -97.0500 360° North 174 200 2,100 -850 Descending Dallas / Fort Worth TRACON
Tue 05:23:10 PM 32.8500 -97.0500 360° North 118 136 1,200 -900 Descending Dallas / Fort Worth TRACON
Tue 05:25:00 PM 32.8833 -97.0333 140° Southeast  Level FlightAware Approximate

Login

Don't have an account? Register now (free) for customized features, flight alerts, and more!